createdAt,value
2019-01-10T00:02:43.164Z,22.03
2019-01-10T00:07:47.832Z,24.53
2019-01-10T00:12:52.371Z,25.50
2019-01-10T00:17:56.971Z,26.90
2019-01-10T00:23:01.570Z,25.17
2019-01-10T00:28:06.150Z,32.10
2019-01-10T00:33:10.749Z,23.30
2019-01-10T00:38:15.391Z,20.33
2019-01-10T00:43:19.976Z,38.13
2019-01-10T00:48:24.534Z,28.10
2019-01-10T00:53:29.090Z,25.17
2019-01-10T00:58:33.655Z,22.03
2019-01-10T01:03:38.157Z,31.10
2019-01-10T01:08:42.744Z,21.70
2019-01-10T01:13:47.360Z,23.30
2019-01-10T01:18:51.950Z,24.07
2019-01-10T01:23:56.471Z,23.87
2019-01-10T01:29:01.063Z,22.30
2019-01-10T01:34:05.780Z,28.57
2019-01-10T01:39:10.355Z,25.73
2019-01-10T01:44:14.939Z,29.23
2019-01-10T01:49:19.549Z,22.97
2019-01-10T01:54:24.142Z,34.17
2019-01-10T01:59:28.663Z,30.13
2019-01-10T02:04:33.191Z,28.07
2019-01-10T02:09:37.761Z,26.33
2019-01-10T02:14:42.288Z,23.77
2019-01-10T02:19:46.836Z,27.90
2019-01-10T02:24:51.440Z,29.67
2019-01-10T02:29:56.008Z,31.50
2019-01-10T02:35:00.551Z,29.93
2019-01-10T02:40:05.686Z,30.53
2019-01-10T02:45:11.451Z,28.43
2019-01-10T02:50:18.762Z,28.83
2019-01-10T02:55:23.348Z,37.40
2019-01-10T03:00:27.920Z,34.70
2019-01-10T03:05:32.423Z,40.00
2019-01-10T03:10:37.097Z,29.23
2019-01-10T03:15:41.667Z,42.10
2019-01-10T03:20:46.337Z,30.20
2019-01-10T03:25:50.899Z,30.03
2019-01-10T03:30:55.491Z,30.07
2019-01-10T03:36:00.097Z,30.83
2019-01-10T03:41:04.839Z,25.37
2019-01-10T03:46:09.448Z,29.27
2019-01-10T03:51:14.026Z,37.00
2019-01-10T03:56:18.621Z,27.93
2019-01-10T04:01:23.228Z,29.83
2019-01-10T04:06:27.798Z,35.03
2019-01-10T04:11:32.381Z,34.40
2019-01-10T04:16:37.000Z,34.43
2019-01-10T04:21:41.579Z,31.20
2019-01-10T04:26:46.163Z,31.37
2019-01-10T04:31:50.725Z,39.77
2019-01-10T04:36:55.299Z,32.13
2019-01-10T04:41:59.900Z,32.93
2019-01-10T04:47:04.503Z,32.87
2019-01-10T04:52:09.357Z,38.40
2019-01-10T04:57:13.963Z,33.47
2019-01-10T05:02:18.854Z,35.23
2019-01-10T05:07:23.405Z,28.17
2019-01-10T05:12:27.975Z,30.83
2019-01-10T05:17:32.586Z,41.37
2019-01-10T05:22:37.182Z,37.33
2019-01-10T05:27:42.094Z,37.40
2019-01-10T05:32:46.637Z,38.07
2019-01-10T05:37:51.213Z,41.37
2019-01-10T05:42:55.910Z,35.33
2019-01-10T05:48:00.505Z,35.77
2019-01-10T05:53:05.088Z,42.97
2019-01-10T05:58:09.686Z,35.60
2019-01-10T06:03:14.301Z,39.57
2019-01-10T06:08:18.885Z,46.42
2019-01-10T06:13:23.473Z,51.18
2019-01-10T06:18:28.073Z,48.87
2019-01-10T06:23:32.656Z,39.37
2019-01-10T06:28:37.204Z,43.67
2019-01-10T06:33:41.807Z,38.93
2019-01-10T06:38:46.408Z,45.10
2019-01-10T06:43:51.138Z,42.57
2019-01-10T06:48:55.701Z,42.23
2019-01-10T06:54:00.251Z,44.97
2019-01-10T06:59:04.833Z,46.40
2019-01-10T07:04:09.454Z,39.83
2019-01-10T07:09:13.976Z,46.67
2019-01-10T07:14:19.052Z,54.90
2019-01-10T07:19:46.805Z,50.30
2019-01-10T07:24:55.785Z,46.50
2019-01-10T07:30:00.454Z,50.23
2019-01-10T07:35:08.989Z,50.47
2019-01-10T07:40:16.223Z,49.83
2019-01-10T07:45:22.968Z,53.53
2019-01-10T07:50:37.759Z,54.95
2019-01-10T07:55:42.448Z,59.10
2019-01-10T08:00:47.274Z,40.90
2019-01-10T08:05:55.120Z,55.87
2019-01-10T08:10:59.632Z,48.50
2019-01-10T08:16:04.280Z,52.83
2019-01-10T08:21:08.829Z,49.67
2019-01-10T08:26:13.408Z,45.00
2019-01-10T08:31:17.976Z,61.63
2019-01-10T08:36:22.561Z,54.48
2019-01-10T08:41:27.151Z,45.27
2019-01-10T08:46:31.766Z,51.27
2019-01-10T08:51:38.071Z,55.10
2019-01-10T08:56:42.854Z,57.20
2019-01-10T09:01:47.389Z,57.70
2019-01-10T09:06:51.963Z,57.53
2019-01-10T09:11:56.500Z,47.13
2019-01-10T09:17:01.113Z,53.77
2019-01-10T09:22:05.694Z,56.17
2019-01-10T09:27:10.294Z,58.70
2019-01-10T09:32:14.869Z,62.67
2019-01-10T09:37:19.369Z,54.00
2019-01-10T09:42:23.987Z,56.37
2019-01-10T09:47:28.606Z,61.60
2019-01-10T09:52:33.161Z,63.90
2019-01-10T09:57:37.813Z,57.40
2019-01-10T10:02:42.352Z,57.90
2019-01-10T10:07:46.917Z,54.50
2019-01-10T10:12:51.507Z,55.90
2019-01-10T10:17:56.068Z,67.80
2019-01-10T10:23:00.581Z,62.10
2019-01-10T10:28:05.241Z,57.97
2019-01-10T10:33:09.836Z,64.77
2019-01-10T10:38:14.316Z,62.30
2019-01-10T10:43:18.819Z,66.13
2019-01-10T10:48:23.355Z,68.70
2019-01-10T10:53:28.022Z,61.03
2019-01-10T10:58:32.534Z,69.93
2019-01-10T11:03:38.819Z,65.87
2019-01-10T11:08:44.677Z,58.13
2019-01-10T11:13:49.573Z,60.90
2019-01-10T11:18:54.100Z,66.70
2019-01-10T11:23:58.605Z,68.90
2019-01-10T11:29:03.149Z,55.73
2019-01-10T11:34:07.720Z,70.03
2019-01-10T11:39:12.346Z,56.00
2019-01-10T11:44:16.908Z,61.27
2019-01-10T11:49:21.540Z,53.17
2019-01-10T11:54:26.137Z,63.30
2019-01-10T11:59:30.705Z,61.03
2019-01-10T12:04:35.206Z,64.07
2019-01-10T12:09:39.803Z,63.23
2019-01-10T12:14:44.399Z,63.80
2019-01-10T12:19:48.973Z,62.77
2019-01-10T12:24:53.514Z,66.33
2019-01-10T12:29:58.083Z,74.67
2019-01-10T12:35:02.661Z,78.43
2019-01-10T12:40:09.272Z,64.47
2019-01-10T12:45:14.937Z,60.40
2019-01-10T12:50:25.034Z,58.70
2019-01-10T12:55:29.580Z,61.67
2019-01-10T13:00:34.261Z,57.57
2019-01-10T13:05:38.758Z,59.17
2019-01-10T13:10:43.254Z,50.00
2019-01-10T13:15:47.822Z,48.97
2019-01-10T13:20:52.501Z,46.27
2019-01-10T13:25:59.811Z,47.63
2019-01-10T13:31:03.305Z,62.43
2019-01-10T13:36:07.889Z,39.53
2019-01-10T13:41:12.447Z,46.70
2019-01-10T13:46:17.589Z,47.70
2019-01-10T13:51:22.181Z,48.80
2019-01-10T13:56:26.702Z,47.27
2019-01-10T14:01:31.326Z,45.50
2019-01-10T14:06:35.956Z,38.40
2019-01-10T14:11:40.580Z,43.13
2019-01-10T14:16:45.160Z,39.87
2019-01-10T14:21:49.741Z,61.63
2019-01-10T14:26:54.259Z,66.37
2019-01-10T14:31:58.849Z,48.07
2019-01-10T14:37:03.526Z,41.57
2019-01-10T14:42:08.162Z,36.73
2019-01-10T14:47:12.744Z,45.07
2019-01-10T14:52:17.386Z,42.50
2019-01-10T14:57:21.918Z,42.87
2019-01-10T15:02:26.519Z,49.07
2019-01-10T15:07:31.078Z,43.93
2019-01-10T15:12:35.602Z,38.43
2019-01-10T15:17:40.170Z,42.20
2019-01-10T15:22:44.737Z,49.50
2019-01-10T15:27:49.229Z,50.80
2019-01-10T15:32:53.775Z,43.50
2019-01-10T15:37:58.357Z,43.57
2019-01-10T15:43:03.799Z,36.70
2019-01-10T15:48:08.406Z,41.90
2019-01-10T15:53:13.055Z,42.97
2019-01-10T15:58:17.762Z,57.37
2019-01-10T16:03:22.269Z,42.33
2019-01-10T16:08:26.890Z,35.93
2019-01-10T16:13:31.495Z,39.57
2019-01-10T16:18:36.118Z,50.23
2019-01-10T16:23:40.699Z,49.80
2019-01-10T16:28:45.292Z,46.93
2019-01-10T16:33:49.898Z,48.42
2019-01-10T16:38:54.475Z,41.20
2019-01-10T16:43:59.050Z,40.50
2019-01-10T16:49:03.635Z,49.93
2019-01-10T16:54:08.247Z,49.60
2019-01-10T16:59:12.819Z,53.50
2019-01-10T17:04:17.420Z,50.28
2019-01-10T17:09:22.034Z,44.13
2019-01-10T17:14:26.626Z,44.77
2019-01-10T17:19:31.196Z,49.33
2019-01-10T17:24:35.749Z,44.90
2019-01-10T17:29:40.351Z,50.10
2019-01-10T17:34:44.994Z,49.38
2019-01-10T17:39:49.611Z,47.57
2019-01-10T17:44:54.241Z,45.20
2019-01-10T17:49:58.817Z,55.92
2019-01-10T17:55:05.085Z,54.30
2019-01-10T18:00:16.559Z,59.42
2019-01-10T18:05:21.148Z,50.40
2019-01-10T18:10:25.734Z,66.02
2019-01-10T18:15:30.340Z,46.77
2019-01-10T18:20:37.526Z,66.75
2019-01-10T18:25:42.129Z,66.63
2019-01-10T18:30:46.719Z,68.07
2019-01-10T18:35:51.287Z,57.37
2019-01-10T18:40:55.852Z,61.63
2019-01-10T18:46:00.436Z,69.62
2019-01-10T18:51:05.031Z,56.03
2019-01-10T18:56:09.717Z,61.55
2019-01-10T19:01:14.309Z,49.57
2019-01-10T19:06:18.940Z,66.33
2019-01-10T19:11:23.540Z,53.27
2019-01-10T19:16:28.126Z,54.93
2019-01-10T19:21:32.732Z,70.55
2019-01-10T19:26:37.308Z,59.80
2019-01-10T19:31:41.833Z,55.23
2019-01-10T19:36:46.398Z,52.23
2019-01-10T19:41:51.000Z,62.23
2019-01-10T19:46:55.588Z,61.43
2019-01-10T19:52:00.242Z,52.50
2019-01-10T19:57:04.997Z,56.77
2019-01-10T20:02:09.548Z,65.17
2019-01-10T20:07:14.207Z,64.50
2019-01-10T20:12:18.824Z,70.90
2019-01-10T20:17:23.427Z,63.63
2019-01-10T20:22:28.117Z,66.73
2019-01-10T20:27:32.682Z,70.10
2019-01-10T20:32:37.307Z,64.60
2019-01-10T20:37:42.077Z,57.30
2019-01-10T20:42:46.689Z,56.53
2019-01-10T20:47:51.340Z,60.77
2019-01-10T20:52:55.945Z,64.33
2019-01-10T20:58:00.619Z,55.67
2019-01-10T21:03:05.261Z,60.17
2019-01-10T21:08:09.834Z,56.43
2019-01-10T21:13:14.357Z,59.63
2019-01-10T21:18:18.916Z,72.77
2019-01-10T21:23:23.733Z,61.40
2019-01-10T21:28:28.363Z,63.13
2019-01-10T21:33:33.018Z,62.67
2019-01-10T21:38:37.733Z,61.10
2019-01-10T21:43:42.384Z,68.13
2019-01-10T21:48:47.043Z,60.77
2019-01-10T21:53:51.698Z,63.23
2019-01-10T21:58:56.393Z,73.90
2019-01-10T22:04:01.082Z,63.93
2019-01-10T22:09:07.923Z,64.37
2019-01-10T22:14:12.598Z,67.90
2019-01-10T22:19:17.316Z,62.90
2019-01-10T22:24:21.858Z,59.30
2019-01-10T22:29:26.464Z,72.63
2019-01-10T22:34:31.164Z,68.90
2019-01-10T22:39:35.773Z,65.00
2019-01-10T22:44:40.336Z,62.27
2019-01-10T22:49:44.913Z,64.17
2019-01-10T22:54:49.518Z,63.30
2019-01-10T22:59:54.214Z,75.10
2019-01-10T23:04:58.884Z,59.70
2019-01-10T23:10:05.292Z,68.37
2019-01-10T23:15:32.505Z,63.83
2019-01-10T23:20:37.182Z,70.93
2019-01-10T23:25:41.798Z,74.20
2019-01-10T23:30:48.502Z,67.33
2019-01-10T23:35:59.389Z,69.23
2019-01-10T23:41:03.905Z,71.17
2019-01-10T23:46:08.547Z,70.63
2019-01-10T23:51:13.126Z,72.97
2019-01-10T23:56:19.127Z,76.30
